Airfield :







YOU CAN JOIN US ON...

 
LOGIN :

Register | Disclaimer

   EN    FR    IT 

 









Legend :    VFR   Marginal VFR   IFR   Intensive IFR   Very Intensive IFR
Visi :
Ceiling :
>= 8 km
>= 3000ft
5 to 8 km
1000 to 3000 ft
1500m to 5 km
500 to 1000 ft
800 to 1500m
200 to 500 ft
< 800m
< 200 ft
Symbols :   Thunderstorms  Fog  Heavy snow  Heavy precipitations  Wind > 20 kt






- Airport Elevation : 141 ft
- IATA code : YQI


CYQI - Yarmouth

CURRENT METAR :
  • 180000Z 07006KT 15SM BKN250 M01/M07 A3033 RMK CI7 SLP275

EXPIRED METARs :
  • 172300Z 10005KT 15SM BKN250 M01/M07 A3035 RMK CI7 SLP282
  • 172200Z 10005KT 15SM FEW025 BKN250 M01/M09 A3035 RMK SC1CI7 SC TR SLP281

TAF TAF CYQI
Valid from the 18 at 00:00 until the 18 at 12:00 UTC


172338Z 1800/1812 VRB03KT P6SM BKN250
BECMG 1800/1802 06010G20KT
FM180300 06010G20KT P6SM SCT012
TEMPO 1803/1809 BKN012
FM180900 05012G22KT P6SM OVC012
BECMG 1810/1812 06015G25KT RMK NXT FCST BY 180600Z



MET'MAP, your aeronautical weather chart ! - Copyright ORBIFLY December 2007 - Disclaimer

ORBIFLY MET'MAP TEAM :

Programming & Development : Alexandra Zaïnal
Concept & Development : Baudouin d'Aumeries
Co-Development & Prog : Marc-Olivier Méhu
Technical & hardware support : Manuel Goepfert

Contact : metmap@orbifly.com




SOURCES & CREDITS :

   NOAA